CHY weather

Coahuayana Airport
Michoacán, Mexico

Public forecast

Using degrees Celsius for public forecast. Weather courtesy of forecast.io.

Closest aviation weather report (METAR) to Coahuayana Airport

Closest report is Licenciado Miguel de la Madrid Airport, 36.0 nm (66.7 km) N. Retrieved 2020/07/04 14:13 UTC (23 minutes ago):

MMIA 041413Z RTD 03008KT 6SM BKN150 23/21 A3003 RMK 8/020

Closest aviation forecast (TAF) to Coahuayana Airport

Forecast is more than 12 hours old.

Closest forecast is Licenciado Miguel de la Madrid Airport, 36.0 nm (66.7 km) N. Retrieved 2020/07/03 18:30 UTC (20 hours ago):

TAF MMIA 031629Z 0318/0418 22010KT 5SM HZ SCT020 BKN080 BECMG 0321/0322 BKN020CB TEMPO 0323/0403 4SM RA TSRA FM040400 00000KT 4SM HZ BKN015 BKN120 FM041500 18006KT 5SM HZ BKN180